Time;durP1;ratioP1;P1;durP2;ratioP2;P2;SDS_P1;SDS_P2;PMS_P1;PMS_P2;Temp;Humidity;BMP_temperature;BMP_pressure;BME280_temperature;BME280_humidity;BME280_pressure;Samples;Min_cycle;Max_cycle;Signal;HPM_P1;HPM_P2
2022/12/20 00:00:21;;;;;;;73.95;38.58;;;;;;;6.94;78.50;102838.19;4999793;28;20480;-81
2022/12/20 00:02:54;;;;;;;69.68;37.47;;;;;;;6.72;78.32;102806.44;4996319;28;20054;-80
2022/12/20 00:05:36;;;;;;;72.70;37.47;;;;;;;6.86;78.62;102830.56;4994817;28;20306;-81
2022/12/20 00:08:06;;;;;;;70.95;35.67;;;;;;;6.96;78.48;102831.91;4995191;28;20053;-80
2022/12/20 00:10:37;;;;;;;72.22;37.63;;;;;;;6.01;78.77;102679.78;4999008;28;20256;-80
2022/12/20 00:13:11;;;;;;;63.97;36.35;;;;;;;6.20;78.94;102709.84;4982806;28;20049;-80
2022/12/20 00:15:39;;;;;;;76.43;37.20;;;;;;;6.69;79.00;102793.38;4980049;28;20049;-81
2022/12/20 00:18:08;;;;;;;68.63;37.33;;;;;;;6.88;79.63;102812.88;4981250;28;20265;-82
2022/12/20 00:20:35;;;;;;;70.20;37.72;;;;;;;6.80;78.83;102807.03;4979498;28;20428;-81
2022/12/20 00:23:02;;;;;;;66.75;36.17;;;;;;;6.68;78.85;102776.69;4979811;28;20061;-80
2022/12/20 00:25:29;;;;;;;63.38;34.53;;;;;;;6.80;79.16;102791.19;4980688;28;20053;-81
2022/12/20 00:28:00;;;;;;;70.05;37.78;;;;;;;5.69;78.83;102615.91;4979563;28;20333;-80
2022/12/20 00:30:30;;;;;;;70.63;36.97;;;;;;;6.50;78.94;102753.63;4979054;28;20431;-81
2022/12/20 00:32:57;;;;;;;65.15;37.17;;;;;;;6.38;78.66;102724.16;4967816;28;20050;-80
2022/12/20 00:35:23;;;;;;;67.43;36.20;;;;;;;6.18;78.69;102664.19;4959547;28;20132;-82
2022/12/20 00:37:54;;;;;;;66.38;36.90;;;;;;;6.95;78.62;102795.88;4955130;28;20058;-79
2022/12/20 00:40:24;;;;;;;71.45;37.28;;;;;;;7.09;78.87;102810.31;4959665;28;20077;-81
2022/12/20 00:42:51;;;;;;;64.47;36.88;;;;;;;6.85;78.99;102781.31;4964139;28;20062;-81
2022/12/20 00:45:20;;;;;;;62.03;35.53;;;;;;;6.99;78.62;102815.97;4993617;28;20235;-81
2022/12/20 00:47:49;;;;;;;66.95;34.50;;;;;;;6.83;79.10;102791.06;5009647;28;20048;-86
2022/12/20 00:50:19;;;;;;;69.43;36.95;;;;;;;6.82;79.01;102795.50;5010311;28;20387;-84
2022/12/20 00:52:45;;;;;;;65.97;37.15;;;;;;;6.48;79.26;102735.22;4986847;28;20448;-84
2022/12/20 00:55:12;;;;;;;67.97;37.30;;;;;;;6.91;79.28;102802.19;4977836;28;20057;-85
2022/12/20 00:57:40;;;;;;;65.38;34.80;;;;;;;6.46;79.07;102728.25;4978337;28;20524;-84
2022/12/20 01:00:10;;;;;;;67.63;36.55;;;;;;;6.85;79.19;102797.16;4978245;28;20140;-83
2022/12/20 01:02:43;;;;;;;62.05;35.05;;;;;;;6.18;79.17;102695.84;4982271;28;20062;-84
2022/12/20 01:05:10;;;;;;;65.20;33.65;;;;;;;6.39;79.57;102725.00;4979201;28;20076;-85
2022/12/20 01:07:36;;;;;;;66.97;36.75;;;;;;;6.44;79.36;102730.97;4977611;28;20670;-83
2022/12/20 01:10:03;;;;;;;68.40;36.03;;;;;;;6.96;79.26;102813.44;4976154;28;20053;-85
2022/12/20 01:12:30;;;;;;;74.75;38.33;;;;;;;6.98;78.61;102816.88;4978421;28;20100;-84
2022/12/20 01:15:01;;;;;;;64.05;37.00;;;;;;;7.02;78.35;102820.28;4978312;28;20449;-84
2022/12/20 01:17:28;;;;;;;75.53;38.28;;;;;;;6.22;78.60;102687.84;4975920;28;20058;-84
2022/12/20 01:19:56;;;;;;;75.68;38.58;;;;;;;6.86;78.51;102785.66;4978273;28;20233;-84
2022/12/20 01:22:24;;;;;;;70.80;37.38;;;;;;;6.81;78.78;102785.00;4973022;28;20687;-83
2022/12/20 01:24:50;;;;;;;71.78;38.95;;;;;;;6.68;78.54;102752.94;4976772;28;20144;-84
2022/12/20 01:27:17;;;;;;;77.30;39.17;;;;;;;6.36;77.95;102715.44;4975671;28;20286;-85
2022/12/20 01:29:44;;;;;;;73.10;39.50;;;;;;;6.50;77.80;102732.50;4979503;28;20123;-85
2022/12/20 01:32:11;;;;;;;73.38;39.05;;;;;;;6.80;77.95;102775.38;4975319;28;20046;-83
2022/12/20 01:34:38;;;;;;;75.63;39.58;;;;;;;5.57;78.11;102566.28;4976999;28;20518;-84
2022/12/20 01:37:07;;;;;;;75.85;40.17;;;;;;;6.43;78.06;102721.31;4978430;28;20084;-84
2022/12/20 01:39:34;;;;;;;81.82;39.30;;;;;;;7.01;78.11;102808.84;4975159;28;20053;-84
2022/12/20 01:42:01;;;;;;;72.05;38.70;;;;;;;6.50;77.60;102725.44;4974533;28;20053;-82
2022/12/20 01:44:31;;;;;;;65.18;37.95;;;;;;;6.45;78.16;102713.34;4975527;28;20160;-85
2022/12/20 01:46:58;;;;;;;74.78;39.88;;;;;;;5.60;77.77;102568.78;4976276;28;20211;-83
2022/12/20 01:49:34;;;;;;;73.25;38.15;;;;;;;6.73;77.65;102750.13;4973810;28;20499;-84
2022/12/20 01:52:12;;;;;;;70.53;39.20;;;;;;;6.14;77.70;102657.34;4975004;28;20250;-84
2022/12/20 01:54:47;;;;;;;73.43;37.90;;;;;;;5.54;78.14;102555.88;4961712;28;20054;-83
2022/12/20 01:57:25;;;;;;;68.72;37.28;;;;;;;6.42;78.88;102701.13;4962434;28;20058;-84
2022/12/20 01:59:55;;;;;;;77.13;41.13;;;;;;;6.82;78.70;102773.50;4962742;28;20136;-85
2022/12/20 02:02:35;;;;;;;68.25;36.15;;;;;;;6.77;78.55;102759.63;4967795;28;20092;-82
2022/12/20 02:05:03;;;;;;;72.97;37.85;;;;;;;6.26;78.83;102670.97;4997790;28;20061;-84
2022/12/20 02:07:32;;;;;;;70.50;38.38;;;;;;;6.94;78.36;102780.09;5001767;28;20155;-85
2022/12/20 02:10:01;;;;;;;74.57;38.72;;;;;;;6.50;78.24;102690.28;5000103;28;20057;-83
2022/12/20 02:12:43;;;;;;;70.45;38.60;;;;;;;6.06;78.19;102616.34;4998122;28;20550;-83
2022/12/20 02:15:25;;;;;;;70.45;38.28;;;;;;;5.91;77.94;102575.56;4998193;28;20061;-83
2022/12/20 02:18:35;;;;;;;66.25;37.65;;;;;;;6.97;77.60;102759.72;5004298;28;20188;-85
2022/12/20 02:21:07;;;;;;;74.22;38.45;;;;;;;6.59;77.96;102698.69;4998767;28;20668;-84
2022/12/20 02:23:49;;;;;;;72.22;36.97;;;;;;;6.67;78.21;102702.81;4980903;28;20515;-83
2022/12/20 02:26:41;;;;;;;71.80;38.08;;;;;;;6.57;78.06;102687.34;4983513;28;20085;-84
2022/12/20 02:29:31;;;;;;;77.45;37.50;;;;;;;6.80;77.92;102719.91;4980424;28;20057;-84
2022/12/20 02:32:24;;;;;;;71.65;37.10;;;;;;;6.93;77.85;102744.91;4982123;28;20258;-84
2022/12/20 02:34:53;;;;;;;66.68;36.95;;;;;;;6.94;77.91;102746.66;4984315;28;20050;-84
2022/12/20 02:37:21;;;;;;;67.65;36.88;;;;;;;6.93;78.41;102739.63;4986852;28;20090;-85
2022/12/20 02:39:50;;;;;;;64.05;35.40;;;;;;;6.79;78.37;102720.81;4983969;28;20057;-83
2022/12/20 02:42:24;;;;;;;67.03;35.95;;;;;;;6.75;78.30;102709.53;4984890;28;20042;-82
2022/12/20 02:45:16;;;;;;;70.53;35.10;;;;;;;5.93;77.88;102571.94;5000942;28;20053;-83
2022/12/20 02:47:54;;;;;;;65.85;34.85;;;;;;;5.87;78.11;102553.72;5010175;28;20053;-85
2022/12/20 02:50:46;;;;;;;61.47;35.10;;;;;;;5.90;78.22;102571.22;5008279;28;20078;-85
2022/12/20 02:53:17;;;;;;;64.65;35.03;;;;;;;5.78;77.95;102541.78;5014972;28;20060;-84
2022/12/20 02:56:15;;;;;;;63.20;35.55;;;;;;;6.91;78.20;102728.25;5013249;28;20125;-83
2022/12/20 02:58:56;;;;;;;68.40;35.47;;;;;;;6.93;78.74;102726.41;4999322;28;20412;-84
2022/12/20 03:01:33;;;;;;;66.70;35.83;;;;;;;6.94;78.14;102728.16;4983637;28;20315;-83
2022/12/20 03:04:02;;;;;;;62.72;34.25;;;;;;;6.01;78.10;102581.38;4986957;28;20054;-85
2022/12/20 03:06:29;;;;;;;63.97;35.33;;;;;;;6.42;78.29;102635.16;4993910;28;20067;-84
2022/12/20 03:08:57;;;;;;;68.55;35.20;;;;;;;6.04;77.93;102582.13;4993163;28;20403;-85
2022/12/20 03:11:26;;;;;;;63.28;35.63;;;;;;;6.45;78.59;102653.50;4991448;28;20444;-85
2022/12/20 03:13:54;;;;;;;62.58;36.28;;;;;;;6.93;78.13;102731.69;4972607;28;20053;-84
2022/12/20 03:16:21;;;;;;;70.88;35.95;;;;;;;6.77;78.27;102709.47;4976272;28;20335;-85
2022/12/20 03:18:48;;;;;;;67.93;37.03;;;;;;;5.87;78.33;102558.13;4976946;28;20424;-84
2022/12/20 03:21:14;;;;;;;74.03;37.90;;;;;;;5.59;78.00;102508.28;4976274;28;20539;-83
2022/12/20 03:23:41;;;;;;;66.35;36.35;;;;;;;6.95;77.81;102744.84;4976824;28;20060;-85
2022/12/20 03:26:08;;;;;;;67.53;35.80;;;;;;;6.11;77.73;102594.16;4978668;28;20072;-85
2022/12/20 03:28:37;;;;;;;72.07;37.00;;;;;;;5.58;77.73;102491.56;4979660;28;20056;-83
2022/12/20 03:31:05;;;;;;;67.28;35.65;;;;;;;6.38;78.10;102629.16;4978914;28;20057;-85
2022/12/20 03:33:38;;;;;;;70.13;38.15;;;;;;;6.46;77.93;102643.81;4979692;28;20747;-85
2022/12/20 03:36:07;;;;;;;66.50;36.35;;;;;;;6.11;77.88;102583.59;4978942;28;20191;-83
2022/12/20 03:38:34;;;;;;;67.38;34.63;;;;;;;5.96;77.88;102566.59;4975300;28;20520;-83
2022/12/20 03:41:03;;;;;;;69.78;35.78;;;;;;;5.61;78.46;102496.75;4977327;28;20673;-84
2022/12/20 03:43:30;;;;;;;74.93;36.88;;;;;;;5.95;78.03;102549.06;4979206;28;20284;-84
2022/12/20 03:45:57;;;;;;;64.38;36.22;;;;;;;6.76;78.42;102690.13;4994569;28;20050;-83
2022/12/20 03:48:23;;;;;;;69.75;35.90;;;;;;;6.40;78.01;102631.72;4978954;28;20050;-84
2022/12/20 03:50:51;;;;;;;71.97;37.75;;;;;;;6.33;77.65;102617.06;4978419;28;20046;-83
2022/12/20 03:53:20;;;;;;;68.45;38.25;;;;;;;6.79;78.32;102691.78;4977661;28;20168;-85
2022/12/20 03:55:51;;;;;;;70.35;37.15;;;;;;;5.71;78.27;102515.72;4977590;28;20408;-83
2022/12/20 03:58:18;;;;;;;75.75;36.10;;;;;;;5.57;78.48;102481.97;4978992;28;20523;-84
2022/12/20 04:00:48;;;;;;;74.00;37.33;;;;;;;6.85;77.90;102691.56;4979154;28;20141;-84
2022/12/20 04:03:18;;;;;;;84.63;39.25;;;;;;;6.38;77.86;102630.94;4978151;28;20086;-85
2022/12/20 04:05:45;;;;;;;75.18;36.75;;;;;;;6.42;78.20;102636.03;4977246;28;20123;-85
2022/12/20 04:08:15;;;;;;;68.90;37.40;;;;;;;6.31;77.70;102603.06;4977330;28;20050;-85
2022/12/20 04:13:32;;;;;;;78.15;41.10;;;;;;;6.55;77.47;102636.44;4991787;28;20189;-82
2022/12/20 04:16:12;;;;;;;83.40;41.97;;;;;;;6.66;78.24;102659.75;4993736;28;20132;-83
2022/12/20 04:18:38;;;;;;;80.05;41.30;;;;;;;5.77;77.99;102504.91;4994052;28;20080;-83
2022/12/20 04:21:09;;;;;;;75.57;41.33;;;;;;;6.33;78.26;102604.72;4993484;28;20281;-83
2022/12/20 04:23:38;;;;;;;86.47;43.53;;;;;;;6.32;78.18;102604.81;4975792;28;20062;-84
2022/12/20 04:26:07;;;;;;;85.15;42.97;;;;;;;6.00;77.74;102548.91;4975510;28;20492;-84
2022/12/20 04:28:34;;;;;;;87.22;43.63;;;;;;;6.18;77.58;102573.69;4974133;28;20057;-84
2022/12/20 04:31:02;;;;;;;86.05;44.85;;;;;;;5.50;77.38;102464.66;4970403;28;20488;-84
2022/12/20 04:33:32;;;;;;;89.70;44.33;;;;;;;6.14;77.77;102567.69;4957435;28;20050;-84
2022/12/20 04:36:01;;;;;;;81.87;42.83;;;;;;;6.20;77.36;102583.25;4957252;28;20059;-83
2022/12/20 04:38:31;;;;;;;88.75;45.53;;;;;;;6.94;77.79;102704.41;4940012;28;20061;-84
2022/12/20 04:40:58;;;;;;;80.03;41.75;;;;;;;6.38;77.09;102613.34;4955141;28;20065;-85
2022/12/20 04:43:25;;;;;;;87.32;44.22;;;;;;;6.12;77.31;102564.25;4960075;28;20054;-85
2022/12/20 04:45:56;;;;;;;91.68;45.83;;;;;;;6.15;77.45;102569.38;4983186;28;20562;-84
2022/12/20 04:48:28;;;;;;;81.05;45.10;;;;;;;6.81;77.44;102679.38;4977519;28;20510;-85
2022/12/20 04:51:16;;;;;;;84.47;42.90;;;;;;;6.75;77.21;102674.38;4991143;28;20557;-84
2022/12/20 04:53:46;;;;;;;80.63;43.90;;;;;;;6.43;77.56;102615.78;4973295;28;20056;-85
2022/12/20 04:56:29;;;;;;;85.15;44.75;;;;;;;6.97;77.26;102695.50;4970123;28;20155;-83
2022/12/20 04:58:57;;;;;;;86.45;45.28;;;;;;;6.66;77.29;102637.78;4978848;28;20054;-84
2022/12/20 05:01:25;;;;;;;82.40;43.78;;;;;;;6.45;77.90;102608.66;4974421;28;20270;-85
2022/12/20 05:03:55;;;;;;;86.63;44.92;;;;;;;6.85;77.98;102666.00;4976690;28;20061;-84
2022/12/20 05:06:23;;;;;;;78.85;43.17;;;;;;;6.66;77.79;102645.69;4973140;28;20057;-83
2022/12/20 05:08:53;;;;;;;90.95;43.83;;;;;;;6.86;77.54;102674.78;4977756;28;20801;-84
2022/12/20 05:11:20;;;;;;;89.20;44.80;;;;;;;6.47;77.82;102605.97;4977265;28;20092;-84
2022/12/20 05:13:47;;;;;;;86.40;43.75;;;;;;;6.92;77.88;102681.59;4974413;28;20077;-84
2022/12/20 05:16:14;;;;;;;86.22;46.53;;;;;;;6.95;77.99;102682.34;4977068;28;20431;-84
2022/12/20 05:18:41;;;;;;;86.57;45.58;;;;;;;6.92;78.22;102687.75;4979201;28;20061;-84
2022/12/20 05:26:49;;;;;;;88.78;43.90;;;;;;;6.82;78.30;102650.28;4994410;28;20045;-84
2022/12/20 05:29:16;;;;;;;82.90;44.78;;;;;;;6.87;78.42;102663.31;4985027;28;20591;-83
2022/12/20 05:31:43;;;;;;;88.47;46.08;;;;;;;6.49;78.49;102586.53;4982092;28;20398;-83
2022/12/20 05:34:13;;;;;;;90.95;45.90;;;;;;;5.49;77.85;102412.91;4962715;28;20515;-84
2022/12/20 05:36:46;;;;;;;84.90;44.83;;;;;;;6.71;78.48;102627.88;4965845;28;20135;-83
2022/12/20 05:39:18;;;;;;;88.68;45.70;;;;;;;6.91;78.12;102659.59;4961359;28;20057;-82
2022/12/20 05:41:45;;;;;;;95.95;47.15;;;;;;;6.20;77.90;102541.06;4959428;28;20065;-85
2022/12/20 05:44:14;;;;;;;99.63;47.33;;;;;;;6.94;77.97;102664.78;4974813;28;20243;-85
2022/12/20 05:46:41;;;;;;;87.88;47.20;;;;;;;5.37;77.91;102403.72;4972028;28;20065;-82
2022/12/20 05:49:08;;;;;;;88.03;48.10;;;;;;;6.96;78.41;102664.69;4979426;28;20060;-85
2022/12/20 05:51:35;;;;;;;84.72;46.35;;;;;;;5.85;77.78;102467.72;4992627;28;20042;-84
2022/12/20 05:54:02;;;;;;;92.03;47.97;;;;;;;6.96;78.44;102662.91;4964134;28;20062;-85
2022/12/20 05:56:29;;;;;;;86.82;47.28;;;;;;;6.82;78.52;102623.00;4964650;28;20125;-84
2022/12/20 05:58:58;;;;;;;96.18;50.42;;;;;;;6.94;78.01;102643.66;4955288;28;20117;-84
2022/12/20 06:01:32;;;;;;;104.43;47.38;;;;;;;7.00;78.19;102659.22;4960290;28;20047;-84
2022/12/20 06:03:59;;;;;;;91.40;48.80;;;;;;;5.98;78.01;102490.09;4977018;28;20146;-85
2022/12/20 06:06:26;;;;;;;99.93;49.15;;;;;;;6.26;77.85;102523.25;4970792;28;20579;-84
2022/12/20 06:08:55;;;;;;;90.45;45.55;;;;;;;6.53;78.29;102567.00;4978495;28;20817;-83
2022/12/20 06:11:24;;;;;;;93.30;50.53;;;;;;;6.03;77.72;102479.38;4960128;28;20060;-85
2022/12/20 06:13:56;;;;;;;93.95;49.55;;;;;;;6.56;77.98;102574.78;4960334;28;20109;-85
2022/12/20 06:16:24;;;;;;;94.03;49.13;;;;;;;6.87;77.94;102615.78;4989776;28;20050;-84
2022/12/20 06:18:51;;;;;;;92.50;46.65;;;;;;;6.19;77.33;102497.16;4964780;28;20140;-84
2022/12/20 06:21:20;;;;;;;98.47;49.67;;;;;;;5.96;77.31;102470.81;4978394;28;20053;-84
2022/12/20 06:23:47;;;;;;;91.68;46.78;;;;;;;7.03;77.87;102645.91;4977642;28;20053;-84
2022/12/20 06:26:14;;;;;;;96.88;46.60;;;;;;;6.94;78.01;102635.75;4984778;28;20048;-84
2022/12/20 06:28:44;;;;;;;90.47;48.42;;;;;;;6.93;78.65;102638.44;4980401;28;20579;-84
2022/12/20 06:31:15;;;;;;;90.93;48.13;;;;;;;5.67;78.12;102414.81;4982901;28;20175;-85
2022/12/20 06:33:45;;;;;;;104.40;50.22;;;;;;;6.77;77.58;102598.59;4983369;28;20058;-84
2022/12/20 06:36:14;;;;;;;91.72;47.55;;;;;;;7.00;78.04;102646.03;4983340;28;20577;-85
2022/12/20 06:38:41;;;;;;;87.60;47.15;;;;;;;6.89;78.00;102618.34;4985953;28;20501;-83
2022/12/20 06:41:12;;;;;;;92.22;48.42;;;;;;;5.92;77.93;102446.34;4989649;28;20111;-83
2022/12/20 06:43:40;;;;;;;96.68;47.08;;;;;;;5.66;77.82;102420.16;4990686;28;20060;-84
2022/12/20 06:46:07;;;;;;;102.50;48.95;;;;;;;6.09;78.01;102479.97;4999616;28;20049;-83
2022/12/20 06:48:34;;;;;;;92.68;47.42;;;;;;;6.73;78.14;102597.00;5008755;28;20053;-83
2022/12/20 06:51:01;;;;;;;95.88;46.80;;;;;;;5.88;77.68;102433.34;5009666;28;20435;-87
2022/12/20 06:53:27;;;;;;;87.82;47.60;;;;;;;5.64;77.86;102393.88;4995221;28;20451;-86
2022/12/20 06:55:54;;;;;;;93.95;50.10;;;;;;;7.00;78.06;102630.19;4980453;28;20432;-82
2022/12/20 06:58:21;;;;;;;92.93;46.33;;;;;;;6.51;78.30;102542.47;4987640;28;20905;-84
2022/12/20 07:00:51;;;;;;;96.05;48.70;;;;;;;6.32;77.88;102501.94;4981776;28;20676;-83
2022/12/20 07:03:18;;;;;;;90.18;47.60;;;;;;;6.59;77.37;102548.28;4978885;28;20080;-84
2022/12/20 07:05:51;;;;;;;91.25;48.78;;;;;;;6.95;77.91;102632.16;4979601;28;20288;-83
2022/12/20 07:08:19;;;;;;;89.60;48.92;;;;;;;6.91;77.80;102616.50;4974016;28;20053;-85
2022/12/20 07:10:46;;;;;;;102.28;47.50;;;;;;;6.63;77.44;102565.72;4978431;28;20057;-85
2022/12/20 07:13:17;;;;;;;94.18;46.75;;;;;;;6.59;77.24;102556.19;4980359;28;20152;-83
2022/12/20 07:15:44;;;;;;;94.10;47.97;;;;;;;5.78;77.46;102423.16;4978919;28;20060;-84
2022/12/20 07:18:11;;;;;;;90.78;47.97;;;;;;;6.40;77.58;102523.56;4976385;28;20354;-83
2022/12/20 07:20:38;;;;;;;97.22;50.65;;;;;;;5.59;77.55;102401.09;4977745;28;20058;-85
2022/12/20 07:23:06;;;;;;;99.53;48.20;;;;;;;6.50;78.02;102553.91;4977342;28;20527;-85
2022/12/20 07:25:34;;;;;;;94.75;47.78;;;;;;;6.93;77.70;102615.53;4996801;28;20050;-84
2022/12/20 07:28:02;;;;;;;102.43;49.33;;;;;;;6.04;77.60;102470.53;4998658;28;20042;-83
2022/12/20 07:30:30;;;;;;;106.45;51.72;;;;;;;6.68;77.67;102569.94;4996403;28;20354;-84
2022/12/20 07:32:58;;;;;;;99.65;49.92;;;;;;;7.17;77.43;102655.91;4994607;28;20075;-84
2022/12/20 07:35:25;;;;;;;100.45;48.72;;;;;;;6.07;77.32;102479.19;4995391;28;20058;-83
2022/12/20 07:37:52;;;;;;;95.38;49.25;;;;;;;7.03;78.08;102643.25;4998576;28;20044;-83
2022/12/20 07:40:19;;;;;;;91.40;44.50;;;;;;;5.90;77.58;102447.34;4996353;28;20065;-85
2022/12/20 07:42:46;;;;;;;87.72;47.35;;;;;;;6.25;77.54;102495.19;4988770;28;20583;-84
2022/12/20 07:45:20;;;;;;;90.55;47.92;;;;;;;7.12;77.61;102646.47;5002098;28;20415;-85
2022/12/20 07:47:46;;;;;;;95.53;47.13;;;;;;;6.72;77.44;102579.44;5003654;28;20060;-84
2022/12/20 07:50:17;;;;;;;90.10;47.40;;;;;;;7.09;77.60;102639.53;4987626;28;20531;-84
2022/12/20 07:52:48;;;;;;;95.93;48.35;;;;;;;6.36;78.02;102524.59;4979090;28;20196;-85
2022/12/20 07:55:21;;;;;;;101.43;49.83;;;;;;;7.14;77.74;102634.06;4979765;28;20129;-84
2022/12/20 07:58:08;;;;;;;96.72;48.05;;;;;;;5.78;77.35;102415.25;4979670;28;20046;-83
2022/12/20 08:00:38;;;;;;;89.90;47.60;;;;;;;6.07;76.93;102447.53;4980575;28;20590;-83
2022/12/20 08:03:17;;;;;;;90.18;46.45;;;;;;;6.15;76.91;102474.44;4981337;28;20482;-84
2022/12/20 08:05:48;;;;;;;87.90;45.13;;;;;;;6.76;77.32;102586.31;4979504;28;20338;-84
2022/12/20 08:08:21;;;;;;;84.43;46.13;;;;;;;6.76;77.52;102581.91;4978363;28;20054;-83
2022/12/20 08:10:48;;;;;;;97.70;47.28;;;;;;;5.92;77.23;102435.81;4976658;28;20291;-84
2022/12/20 08:13:16;;;;;;;87.55;45.17;;;;;;;6.01;77.63;102450.41;4977760;28;20057;-83
2022/12/20 08:15:43;;;;;;;89.20;45.95;;;;;;;6.44;77.43;102522.53;4975072;28;20065;-81
2022/12/20 08:18:10;;;;;;;93.28;48.60;;;;;;;6.43;77.08;102518.16;4978686;28;20045;-83
2022/12/20 08:20:40;;;;;;;101.88;49.67;;;;;;;6.67;77.20;102563.78;4978290;28;20562;-85
2022/12/20 08:23:06;;;;;;;95.22;48.92;;;;;;;5.73;77.10;102409.31;4978321;28;20061;-84
2022/12/20 08:25:34;;;;;;;89.10;49.67;;;;;;;7.12;77.44;102630.59;4977764;28;20468;-84
2022/12/20 08:28:08;;;;;;;91.65;46.95;;;;;;;7.02;77.04;102620.44;4981547;28;20128;-83
2022/12/20 08:30:36;;;;;;;82.13;45.70;;;;;;;5.93;77.03;102431.38;4979490;28;20420;-84
2022/12/20 08:33:04;;;;;;;91.35;45.47;;;;;;;6.07;77.15;102450.19;4982584;28;20124;-85
2022/12/20 08:35:34;;;;;;;78.55;46.53;;;;;;;7.10;77.24;102619.25;4982314;28;20504;-83
2022/12/20 08:38:01;;;;;;;82.90;45.50;;;;;;;6.49;77.20;102514.44;4979171;28;20049;-86
2022/12/20 08:40:28;;;;;;;89.40;47.08;;;;;;;6.52;76.89;102515.16;4978448;28;20460;-83
2022/12/20 08:42:55;;;;;;;86.60;46.90;;;;;;;7.31;76.82;102655.31;4979891;28;20433;-84
2022/12/20 08:45:23;;;;;;;93.15;47.58;;;;;;;6.06;77.25;102451.06;4978655;28;20060;-85
2022/12/20 08:47:52;;;;;;;85.97;47.17;;;;;;;6.89;77.47;102576.94;4978617;28;20061;-84
2022/12/20 08:50:22;;;;;;;86.93;47.70;;;;;;;6.76;77.25;102557.28;4979232;28;20050;-82
2022/12/20 08:52:52;;;;;;;94.53;48.95;;;;;;;7.38;76.93;102646.22;4978578;28;20609;-83
2022/12/20 08:55:23;;;;;;;96.68;49.13;;;;;;;6.45;76.93;102503.13;4976840;28;20304;-85
2022/12/20 08:57:55;;;;;;;89.05;49.10;;;;;;;7.07;76.94;102607.03;4980360;28;20500;-84
2022/12/20 09:00:22;;;;;;;92.78;47.22;;;;;;;6.11;77.15;102443.84;4976748;28;20049;-85
2022/12/20 09:02:50;;;;;;;96.53;49.97;;;;;;;7.40;77.13;102669.91;4819686;28;20134;-84
2022/12/20 09:05:17;;;;;;;96.88;51.55;;;;;;;7.25;77.18;102634.44;4977670;28;20508;-85
2022/12/20 09:07:50;;;;;;;101.45;51.88;;;;;;;7.58;77.00;102692.06;4976302;28;20443;-84
2022/12/20 09:10:17;;;;;;;111.70;52.80;;;;;;;6.95;76.80;102597.84;4978436;28;20064;-84
2022/12/20 09:12:44;;;;;;;100.13;52.35;;;;;;;6.17;76.26;102446.25;4977297;28;20076;-84
2022/12/20 09:15:14;;;;;;;109.63;55.33;;;;;;;7.11;76.44;102594.53;4978574;28;20457;-83
2022/12/20 09:17:40;;;;;;;113.90;55.53;;;;;;;7.41;77.18;102653.16;4977770;28;20723;-85
2022/12/20 09:20:12;;;;;;;107.65;53.75;;;;;;;7.09;76.61;102589.34;4980383;28;20050;-83
2022/12/20 09:22:39;;;;;;;115.50;57.83;;;;;;;6.92;77.17;102561.00;4980416;28;20141;-84
2022/12/20 09:25:08;;;;;;;113.47;56.67;;;;;;;7.68;76.98;102674.88;4961722;28;20551;-84
2022/12/20 09:27:37;;;;;;;108.18;57.05;;;;;;;6.13;76.39;102409.50;4981534;28;20298;-84
2022/12/20 09:30:06;;;;;;;112.30;56.50;;;;;;;7.72;76.52;102676.47;4980818;28;20398;-83
2022/12/20 09:32:33;;;;;;;106.38;55.70;;;;;;;7.46;75.41;102624.75;4976938;28;20085;-84
2022/12/20 09:35:05;;;;;;;112.85;58.25;;;;;;;7.71;75.31;102666.81;4978145;28;20472;-82
2022/12/20 09:37:33;;;;;;;108.90;54.80;;;;;;;7.78;76.01;102670.91;4977447;28;20046;-79
2022/12/20 09:40:00;;;;;;;119.43;56.63;;;;;;;6.54;75.53;102438.56;4977010;28;20167;-80
2022/12/20 09:42:31;;;;;;;104.15;55.92;;;;;;;7.85;75.75;102658.28;4977530;28;20060;-80
2022/12/20 09:45:08;;;;;;;110.30;56.60;;;;;;;7.89;76.09;102652.78;4977879;28;20140;-80
2022/12/20 09:47:38;;;;;;;107.32;54.67;;;;;;;7.96;75.41;102655.13;4977988;28;20204;-81
2022/12/20 09:50:06;;;;;;;105.57;53.15;;;;;;;7.95;75.67;102629.63;4977603;28;20522;-79
2022/12/20 09:52:41;;;;;;;111.07;56.83;;;;;;;7.54;74.96;102553.88;4978000;28;20096;-81
2022/12/20 09:55:36;;;;;;;101.05;54.85;;;;;;;8.14;74.57;102636.63;4979680;28;20176;-81
2022/12/20 09:58:26;;;;;;;108.47;55.85;;;;;;;8.16;74.77;102626.00;4984375;28;20058;-81
2022/12/20 10:00:56;;;;;;;105.80;56.10;;;;;;;8.03;74.79;102608.97;4993451;28;20052;-81
2022/12/20 10:03:31;;;;;;;111.13;56.58;;;;;;;8.08;74.99;102618.41;4989490;28;20050;-83
2022/12/20 10:06:12;;;;;;;112.38;56.85;;;;;;;7.95;74.21;102584.66;4978783;28;20151;-82
2022/12/20 10:08:57;;;;;;;110.22;58.38;;;;;;;8.18;74.77;102615.31;4977813;28;20050;-80
2022/12/20 10:11:49;;;;;;;116.68;58.90;;;;;;;8.20;74.53;102616.97;4982022;28;20085;-84
2022/12/20 10:14:42;;;;;;;108.88;60.15;;;;;;;7.73;74.47;102540.69;4971636;28;20060;-82
2022/12/20 10:17:26;;;;;;;113.85;58.25;;;;;;;7.84;74.81;102562.22;4976925;28;20050;-84
2022/12/20 10:20:10;;;;;;;109.82;55.92;;;;;;;8.18;75.11;102613.56;4986120;28;20570;-84
2022/12/20 10:22:48;;;;;;;116.10;60.60;;;;;;;7.81;74.16;102541.19;4979716;28;20407;-84
2022/12/20 10:25:29;;;;;;;109.82;57.90;;;;;;;7.61;74.44;102498.97;4977092;28;20046;-83
2022/12/20 10:27:56;;;;;;;113.78;59.92;;;;;;;8.10;74.86;102598.03;4981163;28;20454;-84
2022/12/20 10:30:27;;;;;;;117.05;57.67;;;;;;;7.57;74.19;102494.75;4984525;28;20547;-82
2022/12/20 10:32:57;;;;;;;118.07;59.85;;;;;;;6.50;74.76;102318.25;4989169;28;20069;-83
2022/12/20 10:35:30;;;;;;;118.05;62.40;;;;;;;7.57;74.44;102510.59;4992783;28;20499;-84
2022/12/20 10:38:16;;;;;;;118.07;60.53;;;;;;;7.63;74.97;102516.47;4994469;28;20426;-83
2022/12/20 10:41:04;;;;;;;116.93;58.22;;;;;;;7.71;75.19;102531.97;4994898;28;20165;-83
2022/12/20 10:43:58;;;;;;;110.22;60.10;;;;;;;7.60;75.69;102505.19;4995234;28;20058;-83
2022/12/20 10:46:52;;;;;;;116.15;58.88;;;;;;;7.11;75.30;102413.16;5007297;28;20080;-84
2022/12/20 10:49:39;;;;;;;125.07;61.20;;;;;;;7.38;76.01;102442.75;4997415;28;20102;-84
2022/12/20 10:52:08;;;;;;;121.05;62.30;;;;;;;7.76;75.10;102485.03;4986572;28;20050;-83
2022/12/20 10:54:49;;;;;;;118.13;62.17;;;;;;;7.45;74.08;102436.25;4981469;28;20058;-83
2022/12/20 10:57:26;;;;;;;130.27;63.92;;;;;;;8.30;74.80;102565.34;4981980;28;20155;-84
2022/12/20 11:00:33;;;;;;;122.25;62.78;;;;;;;8.28;74.94;102576.94;4982725;28;20053;-84
2022/12/20 11:03:24;;;;;;;123.78;64.35;;;;;;;8.13;74.55;102536.16;4980020;28;20066;-81
2022/12/20 11:05:58;;;;;;;116.60;62.30;;;;;;;8.05;75.10;102522.47;4980002;28;20112;-85
2022/12/20 11:08:31;;;;;;;115.25;62.05;;;;;;;8.14;75.03;102530.81;4981913;28;20050;-84
2022/12/20 11:11:12;;;;;;;131.88;62.05;;;;;;;8.17;74.70;102536.91;4978975;28;20778;-83
2022/12/20 11:13:40;;;;;;;122.38;63.63;;;;;;;8.05;74.75;102506.59;4978954;28;20511;-83
2022/12/20 11:16:23;;;;;;;110.85;61.55;;;;;;;7.65;74.43;102423.88;4981862;28;20049;-82
2022/12/20 11:18:54;;;;;;;110.93;59.58;;;;;;;8.31;74.48;102524.72;4981324;28;20050;-82
2022/12/20 11:21:39;;;;;;;123.47;63.45;;;;;;;7.74;74.14;102438.44;4979865;28;20080;-83
2022/12/20 11:24:17;;;;;;;117.35;62.63;;;;;;;8.02;73.74;102475.84;4982045;28;20559;-83
2022/12/20 11:27:30;;;;;;;122.10;62.65;;;;;;;8.34;74.11;102519.25;4978486;28;20060;-82
2022/12/20 11:30:07;;;;;;;118.55;61.53;;;;;;;8.37;74.56;102509.47;4981404;28;20472;-83
2022/12/20 11:32:52;;;;;;;124.68;62.85;;;;;;;8.38;74.04;102508.53;4979532;28;20292;-83
2022/12/20 11:35:57;;;;;;;119.68;62.20;;;;;;;8.39;73.54;102504.94;4978856;28;20050;-84
2022/12/20 11:38:44;;;;;;;117.00;61.72;;;;;;;8.38;73.38;102508.53;4966215;28;20297;-82
2022/12/20 11:41:30;;;;;;;106.40;57.08;;;;;;;8.35;73.15;102494.53;4979583;28;20049;-85
2022/12/20 11:44:32;;;;;;;117.03;60.67;;;;;;;8.40;73.35;102496.09;4982331;28;20573;-83